createdAt,value
2018-11-11T00:00:17.379Z,23.15
2018-11-11T00:00:50.075Z,22.77
2018-11-11T00:01:22.762Z,24.45
2018-11-11T00:01:55.464Z,23.35
2018-11-11T00:02:28.131Z,21.70
2018-11-11T00:03:00.852Z,23.42
2018-11-11T00:03:33.502Z,23.75
2018-11-11T00:04:06.176Z,23.10
2018-11-11T00:04:38.874Z,23.47
2018-11-11T00:05:11.949Z,24.10
2018-11-11T00:05:44.612Z,23.07
2018-11-11T00:06:17.302Z,23.83
2018-11-11T00:07:48.730Z,23.02
2018-11-11T00:08:27.552Z,23.30
2018-11-11T00:09:00.237Z,23.60
2018-11-11T00:09:32.906Z,24.55
2018-11-11T00:10:05.722Z,24.95
2018-11-11T00:10:38.376Z,23.38
2018-11-11T00:11:11.040Z,23.62
2018-11-11T00:11:43.698Z,24.02
2018-11-11T00:12:16.376Z,23.18
2018-11-11T00:12:49.039Z,25.17
2018-11-11T00:14:25.545Z,23.60
2018-11-11T00:14:58.232Z,23.95
2018-11-11T00:15:30.888Z,23.85
2018-11-11T00:16:03.644Z,22.75
2018-11-11T00:16:36.362Z,23.87
2018-11-11T00:17:09.092Z,24.00
2018-11-11T00:17:43.060Z,23.07
2018-11-11T00:18:15.724Z,23.87
2018-11-11T00:18:48.399Z,23.60
2018-11-11T00:19:21.060Z,23.52
2018-11-11T00:19:53.702Z,24.25
2018-11-11T00:20:26.399Z,22.95
2018-11-11T00:20:59.070Z,23.15
2018-11-11T00:21:31.729Z,24.10
2018-11-11T00:22:04.645Z,26.10
2018-11-11T00:22:37.560Z,23.80
2018-11-11T00:23:10.232Z,25.50
2018-11-11T00:23:42.888Z,23.42
2018-11-11T00:24:15.551Z,23.60
2018-11-11T00:24:48.224Z,22.25
2018-11-11T00:25:20.881Z,24.10
2018-11-11T00:25:53.535Z,24.15
2018-11-11T00:26:26.211Z,25.55
2018-11-11T00:26:58.898Z,23.18
2018-11-11T00:27:31.551Z,22.67
2018-11-11T00:28:04.220Z,22.82
2018-11-11T00:28:36.885Z,23.40
2018-11-11T00:29:09.536Z,25.62
2018-11-11T00:29:42.199Z,23.42
2018-11-11T00:30:17.966Z,22.90
2018-11-11T00:30:50.618Z,23.98
2018-11-11T00:31:23.298Z,22.37
2018-11-11T00:31:55.957Z,23.90
2018-11-11T00:32:28.658Z,24.95
2018-11-11T00:33:01.295Z,23.95
2018-11-11T00:33:33.944Z,23.18
2018-11-11T00:34:06.618Z,23.32
2018-11-11T00:34:39.312Z,25.27
2018-11-11T00:35:11.991Z,23.35
2018-11-11T00:35:44.646Z,24.23
2018-11-11T00:36:17.286Z,24.52
2018-11-11T00:36:49.940Z,23.00
2018-11-11T00:37:22.598Z,22.37
2018-11-11T00:37:55.261Z,23.87
2018-11-11T00:38:27.912Z,23.38
2018-11-11T00:39:00.585Z,22.90
2018-11-11T00:39:33.285Z,22.42
2018-11-11T00:40:06.109Z,22.77
2018-11-11T00:40:38.824Z,22.75
2018-11-11T00:41:11.467Z,22.90
2018-11-11T00:41:44.132Z,22.93
2018-11-11T00:42:16.809Z,22.40
2018-11-11T00:42:49.548Z,23.30
2018-11-11T00:43:22.159Z,22.27
2018-11-11T00:43:54.821Z,22.85
2018-11-11T00:44:27.468Z,23.42
2018-11-11T00:45:00.179Z,22.70
2018-11-11T00:45:32.826Z,22.02
2018-11-11T00:46:05.494Z,21.15
2018-11-11T00:46:38.179Z,22.67
2018-11-11T00:47:10.912Z,22.13
2018-11-11T00:47:44.088Z,21.90
2018-11-11T00:48:16.754Z,22.10
2018-11-11T00:48:49.406Z,21.50
2018-11-11T00:49:22.069Z,21.93
2018-11-11T00:49:54.728Z,22.37
2018-11-11T00:50:27.391Z,21.62
2018-11-11T00:51:00.047Z,22.13
2018-11-11T00:51:32.717Z,21.05
2018-11-11T00:52:05.755Z,22.85
2018-11-11T00:52:38.498Z,22.35
2018-11-11T00:53:11.151Z,21.87
2018-11-11T00:53:43.817Z,20.92
2018-11-11T00:54:16.454Z,22.35
2018-11-11T00:54:49.111Z,22.85
2018-11-11T00:55:21.771Z,21.93
2018-11-11T00:55:54.449Z,21.97
2018-11-11T00:56:27.126Z,21.75
2018-11-11T00:56:59.790Z,21.50
2018-11-11T00:57:32.481Z,21.05
2018-11-11T00:58:05.143Z,21.50
2018-11-11T00:58:37.807Z,21.48
2018-11-11T00:59:10.541Z,21.17
2018-11-11T00:59:43.173Z,20.52
2018-11-11T01:00:17.055Z,21.48
2018-11-11T01:00:49.735Z,21.23
2018-11-11T01:01:22.379Z,20.52
2018-11-11T01:01:55.011Z,21.07
2018-11-11T01:02:27.667Z,21.02
2018-11-11T01:03:00.321Z,22.10
2018-11-11T01:03:32.975Z,20.72
2018-11-11T01:04:05.755Z,21.68
2018-11-11T01:04:38.408Z,20.55
2018-11-11T01:05:11.661Z,21.20
2018-11-11T01:05:44.299Z,21.15
2018-11-11T01:06:17.002Z,20.72
2018-11-11T01:06:49.671Z,20.72
2018-11-11T01:07:22.323Z,21.12
2018-11-11T01:07:54.957Z,21.68
2018-11-11T01:08:27.661Z,21.27
2018-11-11T01:09:00.308Z,21.40
2018-11-11T01:09:32.973Z,20.72
2018-11-11T01:10:07.387Z,21.37
2018-11-11T01:10:45.087Z,20.35
2018-11-11T01:11:17.783Z,20.97
2018-11-11T01:11:50.439Z,20.85
2018-11-11T01:12:23.165Z,20.27
2018-11-11T01:12:55.742Z,20.55
2018-11-11T01:13:28.397Z,20.40
2018-11-11T01:14:01.038Z,20.55
2018-11-11T01:14:33.679Z,20.23
2018-11-11T01:15:07.387Z,20.88
2018-11-11T01:15:40.055Z,20.48
2018-11-11T01:16:12.713Z,21.55
2018-11-11T01:16:45.350Z,20.25
2018-11-11T01:17:18.011Z,21.15
2018-11-11T01:17:50.678Z,20.40
2018-11-11T01:18:23.339Z,21.10
2018-11-11T01:18:55.983Z,20.32
2018-11-11T01:19:28.655Z,20.92
2018-11-11T01:20:01.307Z,20.48
2018-11-11T01:20:33.979Z,20.60
2018-11-11T01:21:06.619Z,19.98
2018-11-11T01:21:39.295Z,21.42
2018-11-11T01:22:11.957Z,21.27
2018-11-11T01:22:45.047Z,19.60
2018-11-11T01:23:17.688Z,20.92
2018-11-11T01:23:50.343Z,20.65
2018-11-11T01:24:23.029Z,20.82
2018-11-11T01:24:55.677Z,20.02
2018-11-11T01:25:28.350Z,20.00
2018-11-11T01:26:01.263Z,20.32
2018-11-11T01:26:34.305Z,19.80
2018-11-11T01:27:06.993Z,20.50
2018-11-11T01:27:39.711Z,19.82
2018-11-11T01:28:12.381Z,20.90
2018-11-11T01:28:45.047Z,19.42
2018-11-11T01:29:17.697Z,19.73
2018-11-11T01:29:50.405Z,20.70
2018-11-11T01:30:23.069Z,20.70
2018-11-11T01:30:55.730Z,20.53
2018-11-11T01:31:28.387Z,20.30
2018-11-11T01:32:01.031Z,19.50
2018-11-11T01:32:33.803Z,19.65
2018-11-11T01:33:06.473Z,18.57
2018-11-11T01:33:39.141Z,19.48
2018-11-11T01:34:11.839Z,19.73
2018-11-11T01:34:44.530Z,19.98
2018-11-11T01:35:17.183Z,20.75
2018-11-11T01:35:49.845Z,20.10
2018-11-11T01:36:22.542Z,20.12
2018-11-11T01:36:55.191Z,19.60
2018-11-11T01:37:27.813Z,20.02
2018-11-11T01:38:00.455Z,20.27
2018-11-11T01:38:33.201Z,19.05
2018-11-11T01:39:06.543Z,19.92
2018-11-11T01:39:39.206Z,19.30
2018-11-11T01:40:11.992Z,19.25
2018-11-11T01:40:44.668Z,19.42
2018-11-11T01:43:47.185Z,19.27
2018-11-11T01:44:19.856Z,18.60
2018-11-11T01:44:52.521Z,19.50
2018-11-11T01:45:25.183Z,19.55
2018-11-11T01:45:57.851Z,19.02
2018-11-11T01:46:30.490Z,18.67
2018-11-11T01:47:03.177Z,19.25
2018-11-11T01:47:35.881Z,19.17
2018-11-11T01:48:08.573Z,19.15
2018-11-11T01:48:41.217Z,18.77
2018-11-11T01:49:13.900Z,19.42
2018-11-11T01:49:46.551Z,18.92
2018-11-11T01:50:19.225Z,18.37
2018-11-11T01:50:51.889Z,18.87
2018-11-11T01:51:24.559Z,19.10
2018-11-11T01:51:57.227Z,18.70
2018-11-11T01:52:29.904Z,17.85
2018-11-11T01:53:02.609Z,18.05
2018-11-11T01:53:35.252Z,18.20
2018-11-11T01:54:07.928Z,18.60
2018-11-11T01:54:40.777Z,18.00
2018-11-11T01:55:13.843Z,18.30
2018-11-11T01:55:46.553Z,18.00
2018-11-11T01:56:19.193Z,18.65
2018-11-11T01:56:51.863Z,18.10
2018-11-11T01:57:24.529Z,17.98
2018-11-11T01:57:57.249Z,18.37
2018-11-11T01:58:29.897Z,17.92
2018-11-11T01:59:02.599Z,17.40
2018-11-11T01:59:35.236Z,17.90
2018-11-11T02:00:13.389Z,18.42
2018-11-11T02:00:46.045Z,17.95
2018-11-11T02:01:18.715Z,17.42
2018-11-11T02:01:51.366Z,18.40
2018-11-11T02:02:24.070Z,17.77
2018-11-11T02:02:56.724Z,17.30
2018-11-11T02:03:29.376Z,17.85
2018-11-11T02:04:02.060Z,17.10
2018-11-11T02:04:34.754Z,17.20
2018-11-11T02:05:08.713Z,18.10
2018-11-11T02:05:41.352Z,16.85
2018-11-11T02:06:14.011Z,17.37
2018-11-11T02:06:46.663Z,17.65
2018-11-11T02:07:19.349Z,17.35
2018-11-11T02:07:52.002Z,17.70
2018-11-11T02:08:24.644Z,16.62
2018-11-11T02:08:57.566Z,17.42
2018-11-11T02:09:30.290Z,16.97
2018-11-11T02:10:03.221Z,17.23
2018-11-11T02:10:35.879Z,17.20
2018-11-11T02:11:08.560Z,18.12
2018-11-11T02:11:41.272Z,17.37
2018-11-11T02:12:13.936Z,17.17
2018-11-11T02:12:46.662Z,17.35
2018-11-11T02:13:19.299Z,16.85
2018-11-11T02:13:51.960Z,16.87
2018-11-11T02:14:24.609Z,16.93
2018-11-11T02:14:57.269Z,17.05
2018-11-11T02:15:29.947Z,17.12
2018-11-11T02:16:02.604Z,16.57
2018-11-11T02:16:35.623Z,17.00
2018-11-11T02:17:08.270Z,16.40
2018-11-11T02:17:40.965Z,17.42
2018-11-11T02:18:13.591Z,17.07
2018-11-11T02:18:46.261Z,17.17
2018-11-11T02:19:19.053Z,16.70
2018-11-11T02:19:51.732Z,16.62
2018-11-11T02:20:24.482Z,16.70
2018-11-11T02:20:57.142Z,16.87
2018-11-11T02:21:29.860Z,17.27
2018-11-11T02:22:02.507Z,17.57
2018-11-11T02:22:35.176Z,16.30
2018-11-11T02:23:07.862Z,16.45
2018-11-11T02:23:40.528Z,17.00
2018-11-11T02:24:13.231Z,16.93
2018-11-11T02:24:46.111Z,17.23
2018-11-11T02:25:18.766Z,16.30
2018-11-11T02:25:51.444Z,17.25
2018-11-11T02:26:24.072Z,16.80
2018-11-11T02:26:56.736Z,16.45
2018-11-11T02:27:29.402Z,17.07
2018-11-11T02:28:02.063Z,16.67
2018-11-11T02:28:34.725Z,16.52
2018-11-11T02:29:07.580Z,16.62
2018-11-11T02:29:40.263Z,16.25
2018-11-11T02:30:14.288Z,16.37
2018-11-11T02:30:46.988Z,16.70
2018-11-11T02:31:19.657Z,16.75
2018-11-11T02:31:52.328Z,16.65
2018-11-11T02:32:25.050Z,15.93
2018-11-11T02:32:57.698Z,15.70
2018-11-11T02:33:30.367Z,16.48
2018-11-11T02:34:03.056Z,16.37
2018-11-11T02:34:35.775Z,16.87
2018-11-11T02:35:08.800Z,16.87
2018-11-11T02:35:41.470Z,16.12
2018-11-11T02:36:14.178Z,16.55
2018-11-11T02:36:46.836Z,16.23
2018-11-11T02:37:19.524Z,16.45
2018-11-11T02:37:52.148Z,16.27
2018-11-11T02:38:24.862Z,15.70
2018-11-11T02:38:57.514Z,16.20
2018-11-11T02:39:30.182Z,16.10
2018-11-11T02:40:03.515Z,15.72
2018-11-11T02:40:36.200Z,16.97
2018-11-11T02:41:08.871Z,15.63
2018-11-11T02:41:41.530Z,16.25
2018-11-11T02:42:14.216Z,16.50
2018-11-11T02:42:47.359Z,15.93
2018-11-11T02:43:20.061Z,15.98
2018-11-11T02:43:52.722Z,16.40
2018-11-11T02:44:25.403Z,16.32
2018-11-11T02:44:58.052Z,16.23
2018-11-11T02:45:30.715Z,16.07
2018-11-11T02:46:03.416Z,16.50
2018-11-11T02:46:36.120Z,16.42
2018-11-11T02:47:08.750Z,16.15
2018-11-11T02:47:41.447Z,16.15
2018-11-11T02:48:14.064Z,15.90
2018-11-11T02:48:46.732Z,16.20
2018-11-11T02:49:19.436Z,16.20
2018-11-11T02:49:52.069Z,16.05
2018-11-11T02:50:24.718Z,15.83
2018-11-11T02:50:57.385Z,16.50
2018-11-11T02:51:30.048Z,16.27
2018-11-11T02:52:02.698Z,16.10
2018-11-11T02:52:35.410Z,15.35
2018-11-11T02:53:08.106Z,15.65
2018-11-11T02:53:40.777Z,15.63
2018-11-11T02:54:13.470Z,16.50
2018-11-11T02:54:46.183Z,16.52
2018-11-11T02:55:18.860Z,15.95
2018-11-11T02:55:51.540Z,15.95
2018-11-11T02:56:24.211Z,15.98
2018-11-11T02:56:56.864Z,15.40
2018-11-11T02:57:29.526Z,15.60
2018-11-11T02:58:02.224Z,15.32
2018-11-11T02:58:34.911Z,15.75
2018-11-11T02:59:07.696Z,16.00
2018-11-11T02:59:40.380Z,16.45
2018-11-11T03:00:16.468Z,15.32
2018-11-11T03:00:49.163Z,15.60
2018-11-11T03:01:21.841Z,16.15
2018-11-11T03:01:54.492Z,16.23
2018-11-11T03:02:27.282Z,15.83
2018-11-11T03:02:59.938Z,15.50
2018-11-11T03:03:32.619Z,15.65
2018-11-11T03:04:05.361Z,15.78
2018-11-11T03:04:38.170Z,15.70
2018-11-11T03:05:12.200Z,16.07
2018-11-11T03:05:44.870Z,15.80
2018-11-11T03:06:17.552Z,15.85
2018-11-11T03:06:50.219Z,15.72
2018-11-11T03:07:22.889Z,16.82
2018-11-11T03:07:55.508Z,15.72
2018-11-11T03:08:28.150Z,15.30
2018-11-11T03:09:00.820Z,15.40
2018-11-11T03:09:33.531Z,15.45
2018-11-11T03:10:06.988Z,15.28
2018-11-11T03:10:39.678Z,15.60
2018-11-11T03:11:12.327Z,15.60
2018-11-11T03:11:45.000Z,15.55
2018-11-11T03:12:17.680Z,16.80
2018-11-11T03:12:50.749Z,16.20
2018-11-11T03:13:23.422Z,15.68
2018-11-11T03:13:56.108Z,15.72
2018-11-11T03:14:28.762Z,17.67
2018-11-11T03:15:01.572Z,15.48
2018-11-11T03:15:34.292Z,15.45
2018-11-11T03:16:06.982Z,15.50
2018-11-11T03:16:39.646Z,15.23
2018-11-11T03:17:12.326Z,16.37
2018-11-11T03:17:45.004Z,15.88
2018-11-11T03:18:17.684Z,16.10
2018-11-11T03:18:50.613Z,16.40
2018-11-11T03:19:23.293Z,14.87
2018-11-11T03:19:56.042Z,16.00
2018-11-11T03:20:28.682Z,15.53
2018-11-11T03:21:01.329Z,15.28
2018-11-11T03:21:34.027Z,16.40
2018-11-11T03:22:06.710Z,16.00
2018-11-11T03:22:39.366Z,15.15
2018-11-11T03:23:12.049Z,15.40
2018-11-11T03:23:44.725Z,15.32
2018-11-11T03:24:17.390Z,16.05
2018-11-11T03:24:50.060Z,15.85
2018-11-11T03:25:22.823Z,15.55
2018-11-11T03:25:55.492Z,15.45
2018-11-11T03:26:28.159Z,15.80
2018-11-11T03:27:00.822Z,16.30
2018-11-11T03:27:33.468Z,15.78
2018-11-11T03:28:06.119Z,16.02
2018-11-11T03:28:38.793Z,15.72
2018-11-11T03:29:11.452Z,16.10
2018-11-11T03:29:44.132Z,15.30
2018-11-11T03:30:17.496Z,15.55
2018-11-11T03:30:50.175Z,15.83
2018-11-11T03:31:23.333Z,15.85
2018-11-11T03:31:56.009Z,15.88
2018-11-11T03:32:28.680Z,15.88
2018-11-11T03:33:01.372Z,15.88
2018-11-11T03:33:34.037Z,15.68
2018-11-11T03:34:06.704Z,16.57
2018-11-11T03:34:39.366Z,16.00
2018-11-11T03:35:12.903Z,15.80
2018-11-11T03:35:45.544Z,15.32
2018-11-11T03:36:18.397Z,15.18
2018-11-11T03:36:51.069Z,15.80
2018-11-11T03:37:23.728Z,15.30
2018-11-11T03:37:56.356Z,15.40
2018-11-11T03:38:29.054Z,15.65
2018-11-11T03:39:01.717Z,16.25
2018-11-11T03:39:34.375Z,16.05
2018-11-11T03:40:09.173Z,15.72
2018-11-11T03:40:41.819Z,15.65
2018-11-11T03:41:14.746Z,15.85
2018-11-11T03:41:47.433Z,15.32
2018-11-11T03:42:20.092Z,15.08
2018-11-11T03:42:52.821Z,15.03
2018-11-11T03:43:25.503Z,14.95
2018-11-11T03:43:58.171Z,16.00
2018-11-11T03:44:30.838Z,15.98
2018-11-11T03:45:03.569Z,15.13
2018-11-11T03:45:36.267Z,16.65
2018-11-11T03:46:09.012Z,15.93
2018-11-11T03:46:41.711Z,15.98
2018-11-11T03:47:14.395Z,15.85
2018-11-11T03:47:48.226Z,16.07
2018-11-11T03:48:20.876Z,15.70
2018-11-11T03:48:53.532Z,16.20
2018-11-11T03:49:26.198Z,15.28
2018-11-11T03:49:58.885Z,16.45
2018-11-11T03:50:31.529Z,16.00
2018-11-11T03:51:04.513Z,16.32
2018-11-11T03:51:37.179Z,16.10
2018-11-11T03:52:09.832Z,16.00
2018-11-11T03:52:42.839Z,16.20
2018-11-11T03:53:15.519Z,15.43
2018-11-11T03:53:48.191Z,15.18
2018-11-11T03:54:20.905Z,15.98
2018-11-11T03:54:53.574Z,15.80
2018-11-11T03:55:26.251Z,15.85
2018-11-11T03:55:58.879Z,15.43
2018-11-11T03:56:31.542Z,15.83
2018-11-11T03:57:04.595Z,16.12
2018-11-11T03:57:37.426Z,15.58
2018-11-11T03:58:10.105Z,16.20
2018-11-11T03:58:42.857Z,15.55
2018-11-11T03:59:15.466Z,15.93
2018-11-11T03:59:48.150Z,15.65
2018-11-11T04:00:20.820Z,16.42
2018-11-11T04:00:53.725Z,16.15
2018-11-11T04:01:26.383Z,16.60
2018-11-11T04:01:59.039Z,15.68
2018-11-11T04:02:31.768Z,15.80
2018-11-11T04:03:04.495Z,16.20
2018-11-11T04:03:37.157Z,15.83
2018-11-11T04:04:09.797Z,16.37
2018-11-11T04:04:42.481Z,15.93
2018-11-11T04:05:16.208Z,15.78
2018-11-11T04:05:48.906Z,15.78
2018-11-11T04:06:21.577Z,15.83
2018-11-11T04:06:54.270Z,15.65
2018-11-11T04:07:26.967Z,15.55
2018-11-11T04:07:59.673Z,15.20
2018-11-11T04:08:32.325Z,15.32
2018-11-11T04:09:08.239Z,15.75
2018-11-11T04:09:40.903Z,14.98
2018-11-11T04:10:14.952Z,15.60
2018-11-11T04:10:47.580Z,15.50
2018-11-11T04:11:20.239Z,15.80
2018-11-11T04:11:52.887Z,15.70
2018-11-11T04:12:25.721Z,14.87
2018-11-11T04:12:58.375Z,16.12
2018-11-11T04:13:31.025Z,15.68
2018-11-11T04:14:03.708Z,14.80
2018-11-11T04:14:36.402Z,15.90
2018-11-11T04:15:10.849Z,15.43
2018-11-11T04:15:43.517Z,15.10
2018-11-11T04:16:16.215Z,15.68
2018-11-11T04:16:48.868Z,15.80
2018-11-11T04:17:21.543Z,15.47
2018-11-11T04:17:54.240Z,15.50
2018-11-11T04:18:26.856Z,16.70
2018-11-11T04:18:59.597Z,15.28
2018-11-11T04:19:32.263Z,15.13
2018-11-11T04:20:06.580Z,15.58
2018-11-11T04:20:39.263Z,15.55
2018-11-11T04:21:11.963Z,15.88
2018-11-11T04:21:44.633Z,15.43
2018-11-11T04:22:18.353Z,15.48
2018-11-11T04:22:51.047Z,15.98
2018-11-11T04:23:23.727Z,15.25
2018-11-11T04:23:56.415Z,15.50
2018-11-11T04:24:29.101Z,15.20
2018-11-11T04:25:01.827Z,15.95
2018-11-11T04:25:34.530Z,15.88
2018-11-11T04:26:07.192Z,15.38
2018-11-11T04:26:39.845Z,15.65
2018-11-11T04:27:12.531Z,15.68
2018-11-11T04:27:45.285Z,15.83
2018-11-11T04:28:17.953Z,15.30
2018-11-11T04:28:50.593Z,15.90
2018-11-11T04:29:23.271Z,15.85
2018-11-11T04:29:55.957Z,16.07
2018-11-11T04:30:28.605Z,15.75
2018-11-11T04:31:01.285Z,15.55
2018-11-11T04:31:34.008Z,15.68
2018-11-11T04:32:06.966Z,16.15
2018-11-11T04:32:39.908Z,15.45
2018-11-11T04:33:12.606Z,17.30
2018-11-11T04:33:45.299Z,16.17
2018-11-11T04:34:17.957Z,15.78
2018-11-11T04:34:50.631Z,16.32
2018-11-11T04:35:23.279Z,15.65
2018-11-11T04:35:55.939Z,16.15
2018-11-11T04:36:28.616Z,16.02
2018-11-11T04:37:01.293Z,16.10
2018-11-11T04:37:33.974Z,15.68
2018-11-11T04:38:06.647Z,15.63
2018-11-11T04:38:39.335Z,15.20
2018-11-11T04:39:12.060Z,15.75
2018-11-11T04:39:44.664Z,15.75
2018-11-11T04:40:17.367Z,16.23
2018-11-11T04:40:50.019Z,15.75
2018-11-11T04:41:22.740Z,15.72
2018-11-11T04:41:55.330Z,15.68
2018-11-11T04:42:28.032Z,16.82
2018-11-11T04:43:00.667Z,16.32
2018-11-11T04:43:33.340Z,20.02
2018-11-11T04:44:06.047Z,15.55
2018-11-11T04:44:38.726Z,15.90
2018-11-11T04:45:13.313Z,15.40
2018-11-11T04:45:46.010Z,15.63
2018-11-11T04:46:18.684Z,16.37
2018-11-11T04:46:51.354Z,16.77
2018-11-11T04:47:24.075Z,16.27
2018-11-11T04:47:56.794Z,16.10
2018-11-11T04:48:29.463Z,16.12
2018-11-11T04:49:02.147Z,15.58
2018-11-11T04:49:34.807Z,16.27
2018-11-11T04:50:09.149Z,16.10
2018-11-11T04:50:41.839Z,15.43
2018-11-11T04:51:14.508Z,16.82
2018-11-11T04:51:47.239Z,16.00
2018-11-11T04:52:19.896Z,15.90
2018-11-11T04:52:52.573Z,16.40
2018-11-11T04:53:25.253Z,15.53
2018-11-11T04:53:57.934Z,15.50
2018-11-11T04:54:30.581Z,15.77
2018-11-11T04:55:03.321Z,16.02
2018-11-11T04:55:35.981Z,15.43
2018-11-11T04:56:08.641Z,15.65
2018-11-11T04:56:41.346Z,16.20
2018-11-11T04:57:14.038Z,16.00
2018-11-11T04:57:46.695Z,15.83
2018-11-11T04:58:19.413Z,15.65
2018-11-11T04:58:52.072Z,16.00
2018-11-11T04:59:24.748Z,16.02
2018-11-11T04:59:57.388Z,16.00
2018-11-11T05:00:30.052Z,16.12
2018-11-11T05:01:02.728Z,16.32
2018-11-11T05:01:35.472Z,15.85
2018-11-11T05:02:08.072Z,15.88
2018-11-11T05:02:40.959Z,15.45
2018-11-11T05:03:13.651Z,15.50
2018-11-11T05:03:46.312Z,15.65
2018-11-11T05:04:19.001Z,17.62
2018-11-11T05:04:51.732Z,16.23
2018-11-11T05:05:24.322Z,15.80
2018-11-11T05:05:56.984Z,15.43
2018-11-11T05:06:29.620Z,16.00
2018-11-11T05:07:02.270Z,14.68
2018-11-11T05:07:34.921Z,15.83
2018-11-11T05:08:07.581Z,15.70
2018-11-11T05:08:40.211Z,17.27
2018-11-11T05:09:13.377Z,14.87
2018-11-11T05:09:46.028Z,15.50
2018-11-11T05:10:18.682Z,15.78
2018-11-11T05:10:51.366Z,14.90
2018-11-11T05:11:24.061Z,15.35
2018-11-11T05:11:56.724Z,15.83
2018-11-11T05:12:29.396Z,15.30
2018-11-11T05:13:02.078Z,16.32
2018-11-11T05:13:34.724Z,15.80
2018-11-11T05:14:07.692Z,15.00
2018-11-11T05:14:40.327Z,15.20
2018-11-11T05:15:13.626Z,15.18
2018-11-11T05:15:46.271Z,15.10
2018-11-11T05:16:18.934Z,15.20
2018-11-11T05:16:51.604Z,14.57
2018-11-11T05:17:24.271Z,14.90
2018-11-11T05:17:56.966Z,15.10
2018-11-11T05:18:29.667Z,15.18
2018-11-11T05:19:02.307Z,15.35
2018-11-11T05:19:34.982Z,15.85
2018-11-11T05:20:08.514Z,19.62
2018-11-11T05:20:41.170Z,15.35
2018-11-11T05:21:13.831Z,14.10
2018-11-11T05:21:46.597Z,15.18
2018-11-11T05:22:19.222Z,14.60
2018-11-11T05:22:51.896Z,15.32
2018-11-11T05:23:24.570Z,15.58
2018-11-11T05:23:57.240Z,15.00
2018-11-11T05:24:29.920Z,15.15
2018-11-11T05:25:02.679Z,15.78
2018-11-11T05:25:35.394Z,15.85
2018-11-11T05:26:08.073Z,17.37
2018-11-11T05:26:40.748Z,15.60
2018-11-11T05:27:13.417Z,15.13
2018-11-11T05:27:46.081Z,15.70
2018-11-11T05:28:18.738Z,16.70
2018-11-11T05:28:51.434Z,15.72
2018-11-11T05:29:24.080Z,15.23
2018-11-11T05:29:56.765Z,15.45
2018-11-11T05:30:29.414Z,15.65
2018-11-11T05:31:02.270Z,15.38
2018-11-11T05:31:34.718Z,14.55
2018-11-11T05:32:07.387Z,14.83
2018-11-11T05:32:40.254Z,15.32
2018-11-11T05:33:12.916Z,15.20
2018-11-11T05:33:45.568Z,14.83
2018-11-11T05:34:18.229Z,16.05
2018-11-11T05:34:50.868Z,15.20
2018-11-11T05:35:23.543Z,15.80
2018-11-11T05:35:56.199Z,15.80
2018-11-11T05:36:28.938Z,15.00
2018-11-11T05:37:01.620Z,16.27
2018-11-11T05:37:34.252Z,15.25
2018-11-11T05:38:06.890Z,15.23
2018-11-11T05:38:39.550Z,15.43
2018-11-11T05:39:12.956Z,19.87
2018-11-11T05:39:45.604Z,15.05
2018-11-11T05:40:18.328Z,16.12
2018-11-11T05:40:51.013Z,15.70
2018-11-11T05:41:23.738Z,15.30
2018-11-11T05:41:56.490Z,15.20
2018-11-11T05:42:29.138Z,15.13
2018-11-11T05:43:01.775Z,15.35
2018-11-11T05:43:34.416Z,15.43
2018-11-11T05:44:07.982Z,14.95
2018-11-11T05:44:40.658Z,15.20
2018-11-11T05:45:14.210Z,15.15
2018-11-11T05:45:46.912Z,15.60
2018-11-11T05:46:19.668Z,15.20
2018-11-11T05:46:52.356Z,16.50
2018-11-11T05:47:25.012Z,15.93
2018-11-11T05:47:57.683Z,14.93
2018-11-11T05:48:30.326Z,15.30
2018-11-11T05:49:03.202Z,15.15
2018-11-11T05:49:35.882Z,15.60
2018-11-11T05:50:09.864Z,15.58
2018-11-11T05:50:42.529Z,15.83
2018-11-11T05:51:15.204Z,15.58
2018-11-11T05:51:47.883Z,14.70
2018-11-11T05:52:20.550Z,15.10
2018-11-11T05:52:53.226Z,15.72
2018-11-11T05:53:25.869Z,16.05
2018-11-11T05:53:58.550Z,16.02
2018-11-11T05:54:31.202Z,15.03
2018-11-11T05:55:04.791Z,15.55
2018-11-11T05:55:37.466Z,16.12
2018-11-11T05:56:10.135Z,15.63
2018-11-11T05:56:42.869Z,15.38
2018-11-11T05:57:15.550Z,16.48
2018-11-11T05:57:48.190Z,15.65
2018-11-11T05:58:20.841Z,16.30
2018-11-11T05:58:53.514Z,15.45
2018-11-11T05:59:26.233Z,15.95
2018-11-11T05:59:58.902Z,15.60
2018-11-11T06:00:31.629Z,15.72
2018-11-11T06:01:04.593Z,15.78
2018-11-11T06:01:37.273Z,15.88
2018-11-11T06:02:09.978Z,16.32
2018-11-11T06:02:42.908Z,16.00
2018-11-11T06:03:15.572Z,16.17
2018-11-11T06:03:48.224Z,15.65
2018-11-11T06:04:20.850Z,15.58
2018-11-11T06:04:53.514Z,17.10
2018-11-11T06:05:26.159Z,15.72
2018-11-11T06:05:58.816Z,15.83
2018-11-11T06:06:31.689Z,16.00
2018-11-11T06:07:04.576Z,15.98
2018-11-11T06:07:37.275Z,16.00
2018-11-11T06:08:09.927Z,16.40
2018-11-11T06:08:42.604Z,16.07
2018-11-11T06:09:15.262Z,15.60
2018-11-11T06:09:47.944Z,16.30
2018-11-11T06:10:20.586Z,16.75
2018-11-11T06:10:53.220Z,17.05
2018-11-11T06:11:25.871Z,16.42
2018-11-11T06:11:58.550Z,16.37
2018-11-11T06:12:31.224Z,16.70
2018-11-11T06:13:03.947Z,16.12
2018-11-11T06:13:36.637Z,16.65
2018-11-11T06:14:09.279Z,17.00
2018-11-11T06:14:41.947Z,16.85
2018-11-11T06:15:14.639Z,16.05
2018-11-11T06:15:47.327Z,16.87
2018-11-11T06:16:19.974Z,16.57
2018-11-11T06:16:52.643Z,16.50
2018-11-11T06:17:25.258Z,16.95
2018-11-11T06:17:57.939Z,16.85
2018-11-11T06:18:30.578Z,16.80
2018-11-11T06:19:03.280Z,16.48
2018-11-11T06:19:35.953Z,15.63
2018-11-11T06:20:11.049Z,16.80
2018-11-11T06:20:43.706Z,16.65
2018-11-11T06:21:16.363Z,16.12
2018-11-11T06:21:49.072Z,16.60
2018-11-11T06:22:21.738Z,16.45
2018-11-11T06:22:54.399Z,16.55
2018-11-11T06:23:27.069Z,16.42
2018-11-11T06:23:59.709Z,16.52
2018-11-11T06:24:32.369Z,16.55
2018-11-11T06:25:05.547Z,16.37
2018-11-11T06:25:38.189Z,16.75
2018-11-11T06:26:10.841Z,17.10
2018-11-11T06:26:43.502Z,17.00
2018-11-11T06:27:16.149Z,16.00
2018-11-11T06:27:48.798Z,15.53
2018-11-11T06:28:21.439Z,16.40
2018-11-11T06:28:54.113Z,16.45
2018-11-11T06:29:26.776Z,17.00
2018-11-11T06:29:59.499Z,15.75
2018-11-11T06:30:32.147Z,16.50
2018-11-11T06:31:04.843Z,15.98
2018-11-11T06:31:37.489Z,15.95
2018-11-11T06:32:10.159Z,16.17
2018-11-11T06:32:42.855Z,15.83
2018-11-11T06:33:15.507Z,16.37
2018-11-11T06:33:48.160Z,16.07
2018-11-11T06:34:20.817Z,16.65
2018-11-11T06:34:53.463Z,16.10
2018-11-11T06:35:26.114Z,16.07
2018-11-11T06:35:58.786Z,16.10
2018-11-11T06:36:31.444Z,15.88
2018-11-11T06:37:04.268Z,16.15
2018-11-11T06:37:37.119Z,15.55
2018-11-11T06:38:09.777Z,15.83
2018-11-11T06:38:42.419Z,15.40
2018-11-11T06:39:15.144Z,16.10
2018-11-11T06:39:47.799Z,16.30
2018-11-11T06:40:20.487Z,16.20
2018-11-11T06:40:53.125Z,15.50
2018-11-11T06:41:25.774Z,16.00
2018-11-11T06:41:58.423Z,15.35
2018-11-11T06:42:31.099Z,15.60
2018-11-11T06:43:03.786Z,15.88
2018-11-11T06:43:36.537Z,15.95
2018-11-11T06:44:09.303Z,16.30
2018-11-11T06:44:41.958Z,15.93
2018-11-11T06:45:15.064Z,15.65
2018-11-11T06:45:47.780Z,16.10
2018-11-11T06:46:20.417Z,15.93
2018-11-11T06:46:53.092Z,15.78
2018-11-11T06:47:25.761Z,15.78
2018-11-11T06:47:58.556Z,15.18
2018-11-11T06:48:31.165Z,15.48
2018-11-11T06:49:03.929Z,15.53
2018-11-11T06:49:36.572Z,16.02
2018-11-11T06:50:10.595Z,15.18
2018-11-11T06:50:43.269Z,15.78
2018-11-11T06:51:15.968Z,15.65
2018-11-11T06:51:48.611Z,15.35
2018-11-11T06:52:21.275Z,15.08
2018-11-11T06:52:53.935Z,15.20
2018-11-11T06:53:26.584Z,15.35
2018-11-11T06:53:59.242Z,15.20
2018-11-11T06:54:31.894Z,15.23
2018-11-11T06:55:04.570Z,15.32
2018-11-11T06:55:37.242Z,14.83
2018-11-11T06:56:09.919Z,15.30
2018-11-11T06:56:42.570Z,16.07
2018-11-11T06:57:15.225Z,15.18
2018-11-11T06:57:47.868Z,15.30
2018-11-11T06:58:20.536Z,15.48
2018-11-11T06:58:53.187Z,15.65
2018-11-11T06:59:25.863Z,15.60
2018-11-11T06:59:58.511Z,15.83
2018-11-11T07:00:31.165Z,15.40
2018-11-11T07:01:04.453Z,15.50
2018-11-11T07:01:38.401Z,15.60
2018-11-11T07:02:11.078Z,15.90
2018-11-11T07:02:55.327Z,15.10
2018-11-11T07:03:40.155Z,15.80
2018-11-11T07:04:12.827Z,15.65
2018-11-11T07:04:45.517Z,15.55
2018-11-11T07:05:18.255Z,15.35
2018-11-11T07:05:50.919Z,15.75
2018-11-11T07:06:23.927Z,15.45
2018-11-11T07:06:56.581Z,16.02